createdAt,value
2017-04-19T00:00:25.497Z,934.75
2017-04-19T00:00:53.911Z,934.73
2017-04-19T00:01:22.189Z,934.8
2017-04-19T00:01:50.514Z,934.78
2017-04-19T00:02:18.684Z,934.79
2017-04-19T00:02:46.907Z,934.71
2017-04-19T00:03:15.089Z,934.7
2017-04-19T00:03:43.435Z,934.69
2017-04-19T00:04:11.749Z,934.7
2017-04-19T00:04:40.053Z,934.7
2017-04-19T00:05:08.318Z,934.73
2017-04-19T00:05:36.793Z,934.73
2017-04-19T00:06:05.118Z,934.73
2017-04-19T00:06:33.177Z,934.75
2017-04-19T00:07:01.489Z,934.7
2017-04-19T00:07:29.879Z,934.75
2017-04-19T00:07:58.148Z,934.75
2017-04-19T00:08:26.292Z,934.76
2017-04-19T00:08:54.474Z,934.79
2017-04-19T00:09:22.712Z,934.74
2017-04-19T00:09:50.972Z,934.74
2017-04-19T00:10:19.526Z,934.77
2017-04-19T00:10:47.809Z,934.79
2017-04-19T00:11:16.924Z,934.76
2017-04-19T00:11:45.204Z,934.8
2017-04-19T00:12:13.342Z,934.76
2017-04-19T00:12:41.837Z,934.79
2017-04-19T00:13:09.927Z,934.79
2017-04-19T00:13:37.992Z,934.79
2017-04-19T00:14:06.186Z,934.8
2017-04-19T00:14:34.460Z,934.8
2017-04-19T00:15:02.718Z,934.81
2017-04-19T00:15:31.126Z,934.84
2017-04-19T00:15:59.595Z,934.94
2017-04-19T00:16:27.741Z,934.89
2017-04-19T00:16:55.899Z,934.83
2017-04-19T00:17:24.963Z,934.85
2017-04-19T00:17:53.217Z,934.84
2017-04-19T00:18:21.491Z,934.84
2017-04-19T00:18:49.718Z,934.88
2017-04-19T00:19:18.111Z,934.83
2017-04-19T00:19:46.275Z,934.81
2017-04-19T00:20:14.503Z,934.86
2017-04-19T00:20:42.813Z,934.79
2017-04-19T00:21:11.136Z,934.85
2017-04-19T00:21:39.612Z,934.84
2017-04-19T00:22:07.787Z,934.91
2017-04-19T00:22:35.939Z,934.85
2017-04-19T00:23:04.121Z,934.82
2017-04-19T00:23:32.369Z,934.82
2017-04-19T00:24:00.710Z,934.82
2017-04-19T00:24:28.982Z,934.84
2017-04-19T00:24:57.064Z,934.8
2017-04-19T00:25:25.408Z,934.8
2017-04-19T00:25:53.360Z,934.94
2017-04-19T00:26:21.606Z,934.83
2017-04-19T00:26:50.051Z,934.87
2017-04-19T00:27:18.221Z,934.83
2017-04-19T00:27:46.375Z,934.87
2017-04-19T00:28:14.629Z,934.88
2017-04-19T00:28:42.799Z,934.83
2017-04-19T00:29:11.191Z,934.83
2017-04-19T00:29:39.535Z,934.79
2017-04-19T00:30:07.848Z,934.83
2017-04-19T00:30:35.835Z,934.82
2017-04-19T00:31:04.175Z,934.81
2017-04-19T00:31:32.392Z,934.84
2017-04-19T00:32:00.684Z,934.84
2017-04-19T00:32:28.989Z,934.85
2017-04-19T00:32:57.190Z,934.83
2017-04-19T00:33:25.537Z,934.81
2017-04-19T00:33:53.805Z,934.87
2017-04-19T00:34:22.000Z,934.9
2017-04-19T00:34:50.319Z,934.95
2017-04-19T00:35:18.573Z,934.94
2017-04-19T00:35:46.963Z,934.96
2017-04-19T00:36:15.293Z,934.96
2017-04-19T00:36:43.342Z,934.97
2017-04-19T00:37:11.635Z,934.95
2017-04-19T00:37:39.909Z,934.95
2017-04-19T00:38:08.203Z,934.96
2017-04-19T00:38:36.356Z,934.91
2017-04-19T00:39:04.533Z,934.88
2017-04-19T00:39:32.841Z,934.86
2017-04-19T00:40:01.138Z,934.89
2017-04-19T00:40:29.397Z,934.83
2017-04-19T00:40:57.665Z,934.87
2017-04-19T00:41:25.877Z,934.8
2017-04-19T00:41:54.140Z,934.78
2017-04-19T00:42:22.400Z,934.8
2017-04-19T00:42:50.671Z,934.79
2017-04-19T00:43:19.248Z,934.8
2017-04-19T00:43:47.698Z,934.8
2017-04-19T00:44:15.920Z,934.77
2017-04-19T00:44:44.052Z,934.75
2017-04-19T00:45:12.304Z,934.79
2017-04-19T00:45:40.671Z,934.81
2017-04-19T00:46:08.888Z,934.82
2017-04-19T00:46:37.157Z,934.83
2017-04-19T00:47:05.613Z,934.82
2017-04-19T00:47:33.810Z,934.83
2017-04-19T00:48:02.052Z,934.84
2017-04-19T00:48:30.099Z,934.88
2017-04-19T00:48:58.486Z,934.84
2017-04-19T00:49:26.667Z,934.86
2017-04-19T00:49:54.862Z,934.84
2017-04-19T00:50:23.108Z,934.89
2017-04-19T00:50:51.229Z,934.81
2017-04-19T00:51:19.610Z,934.83
2017-04-19T00:51:48.111Z,934.86
2017-04-19T00:52:16.718Z,934.87
2017-04-19T00:52:45.007Z,934.86
2017-04-19T00:53:13.231Z,934.8
2017-04-19T00:53:41.622Z,934.82
2017-04-19T00:54:10.684Z,934.85
2017-04-19T00:54:38.872Z,934.84
2017-04-19T00:55:07.126Z,934.87
2017-04-19T00:55:35.376Z,934.82
2017-04-19T00:56:03.629Z,934.83
2017-04-19T00:56:32.045Z,934.86
2017-04-19T00:57:00.272Z,934.95
2017-04-19T00:57:28.619Z,934.91
2017-04-19T00:57:56.708Z,934.89
2017-04-19T00:58:25.184Z,934.84
2017-04-19T00:58:53.354Z,934.93
2017-04-19T00:59:21.633Z,934.91
2017-04-19T00:59:49.940Z,934.9
2017-04-19T01:00:18.063Z,934.92
2017-04-19T01:00:46.350Z,934.84
2017-04-19T01:01:14.594Z,934.91
2017-04-19T01:01:43.342Z,934.91
2017-04-19T01:02:12.522Z,934.9
2017-04-19T01:02:40.861Z,934.9
2017-04-19T01:03:09.112Z,934.88
2017-04-19T01:03:38.795Z,934.93
2017-04-19T01:04:06.978Z,934.89
2017-04-19T01:04:35.182Z,934.86
2017-04-19T01:05:03.337Z,934.9
2017-04-19T01:05:31.569Z,934.88
2017-04-19T01:05:59.614Z,934.86
2017-04-19T01:06:27.731Z,934.86
2017-04-19T01:06:56.059Z,934.88
2017-04-19T01:07:24.208Z,934.83
2017-04-19T01:07:52.258Z,934.89
2017-04-19T01:08:20.447Z,934.85
2017-04-19T01:08:48.583Z,934.92
2017-04-19T01:09:16.800Z,934.9
2017-04-19T01:09:44.864Z,934.88
2017-04-19T01:10:12.934Z,934.91
2017-04-19T01:10:41.219Z,934.89
2017-04-19T01:11:09.346Z,934.92
2017-04-19T01:11:37.467Z,934.89
2017-04-19T01:12:05.689Z,934.88
2017-04-19T01:12:33.838Z,934.86
2017-04-19T01:13:02.042Z,934.9
2017-04-19T01:13:30.209Z,934.84
2017-04-19T01:13:58.434Z,934.83
2017-04-19T01:14:26.483Z,934.85
2017-04-19T01:14:54.706Z,934.84
2017-04-19T01:15:22.965Z,934.84
2017-04-19T01:15:51.226Z,934.82
2017-04-19T01:16:19.420Z,934.83
2017-04-19T01:16:47.646Z,934.9
2017-04-19T01:17:15.850Z,934.84
2017-04-19T01:17:44.071Z,934.83
2017-04-19T01:18:12.108Z,934.84
2017-04-19T01:18:40.248Z,934.77
2017-04-19T01:19:08.391Z,934.79
2017-04-19T01:19:36.579Z,934.8
2017-04-19T01:20:04.660Z,934.81
2017-04-19T01:20:32.676Z,934.82
2017-04-19T01:21:00.695Z,934.79
2017-04-19T01:21:28.844Z,934.86
2017-04-19T01:21:57.094Z,934.85
2017-04-19T01:22:25.261Z,934.78
2017-04-19T01:22:53.469Z,934.85
2017-04-19T01:23:21.658Z,934.82
2017-04-19T01:23:49.724Z,934.78
2017-04-19T01:24:17.959Z,934.78
2017-04-19T01:24:46.156Z,934.85
2017-04-19T01:25:14.308Z,934.81
2017-04-19T01:25:42.706Z,934.86
2017-04-19T01:26:10.972Z,934.84
2017-04-19T01:26:38.909Z,934.83
2017-04-19T01:27:07.168Z,934.85
2017-04-19T01:27:35.384Z,934.89
2017-04-19T01:28:03.582Z,934.8
2017-04-19T01:28:31.620Z,934.85
2017-04-19T01:28:59.768Z,934.86
2017-04-19T01:29:27.914Z,934.85
2017-04-19T01:29:56.038Z,934.87
2017-04-19T01:30:24.176Z,934.85
2017-04-19T01:30:52.464Z,934.85
2017-04-19T01:31:20.688Z,934.83
2017-04-19T01:31:48.907Z,934.82
2017-04-19T01:32:16.913Z,934.79
2017-04-19T01:32:45.147Z,934.81
2017-04-19T01:33:13.335Z,934.83
2017-04-19T01:33:41.523Z,934.82
2017-04-19T01:34:09.778Z,934.81
2017-04-19T01:34:37.898Z,934.76
2017-04-19T01:35:06.020Z,934.8
2017-04-19T01:35:34.170Z,934.84
2017-04-19T01:36:02.299Z,934.8
2017-04-19T01:36:30.371Z,934.77
2017-04-19T01:36:58.446Z,934.8
2017-04-19T01:37:26.601Z,934.76
2017-04-19T01:37:54.742Z,934.8
2017-04-19T01:38:22.970Z,934.83
2017-04-19T01:38:51.197Z,934.85
2017-04-19T01:39:19.454Z,934.81
2017-04-19T01:39:47.820Z,934.81
2017-04-19T01:40:15.964Z,934.83
2017-04-19T01:40:44.218Z,934.81
2017-04-19T01:41:12.200Z,934.83
2017-04-19T01:41:40.314Z,934.83
2017-04-19T01:42:08.548Z,934.87
2017-04-19T01:42:36.592Z,934.87
2017-04-19T01:43:04.811Z,934.86
2017-04-19T01:43:32.859Z,934.84
2017-04-19T01:44:01.128Z,934.8
2017-04-19T01:44:29.314Z,934.82
2017-04-19T01:44:57.466Z,934.81
2017-04-19T01:45:25.689Z,934.82
2017-04-19T01:45:53.806Z,934.84
2017-04-19T01:46:21.900Z,934.78
2017-04-19T01:46:50.045Z,934.78
2017-04-19T01:47:18.372Z,934.78
2017-04-19T01:47:46.534Z,934.78
2017-04-19T01:48:14.626Z,934.7
2017-04-19T01:48:42.859Z,934.73
2017-04-19T01:49:11.111Z,934.73
2017-04-19T01:49:39.305Z,934.73
2017-04-19T01:50:07.544Z,934.73
2017-04-19T01:50:35.763Z,934.72
2017-04-19T01:51:04.129Z,934.78
2017-04-19T01:51:32.333Z,934.72
2017-04-19T01:52:00.464Z,934.76
2017-04-19T01:52:28.399Z,934.69
2017-04-19T01:52:56.674Z,934.7
2017-04-19T01:53:24.868Z,934.73
2017-04-19T01:53:52.865Z,934.77
2017-04-19T01:54:21.192Z,934.71
2017-04-19T01:54:49.349Z,934.77
2017-04-19T01:55:17.545Z,934.74
2017-04-19T01:55:45.799Z,934.85
2017-04-19T01:56:13.751Z,934.72
2017-04-19T01:56:41.947Z,934.76
2017-04-19T01:57:10.256Z,934.77
2017-04-19T01:57:38.353Z,934.74
2017-04-19T01:58:06.490Z,934.76
2017-04-19T01:58:34.617Z,934.81
2017-04-19T01:59:02.725Z,934.75
2017-04-19T01:59:30.868Z,934.75
2017-04-19T01:59:59.010Z,934.77
2017-04-19T02:00:27.253Z,934.75
2017-04-19T02:00:55.490Z,934.75
2017-04-19T02:01:23.756Z,934.78
2017-04-19T02:01:52.000Z,934.76
2017-04-19T02:02:20.224Z,934.75
2017-04-19T02:02:48.490Z,934.75
2017-04-19T02:03:16.656Z,934.74
2017-04-19T02:03:44.772Z,934.77
2017-04-19T02:04:13.051Z,934.79
2017-04-19T02:04:41.158Z,934.78
2017-04-19T02:05:09.406Z,934.8
2017-04-19T02:05:37.575Z,934.81
2017-04-19T02:06:05.779Z,934.86
2017-04-19T02:06:33.911Z,934.91
2017-04-19T02:07:02.030Z,934.8
2017-04-19T02:07:30.266Z,934.85
2017-04-19T02:07:58.428Z,934.84
2017-04-19T02:08:26.645Z,934.86
2017-04-19T02:08:54.793Z,934.83
2017-04-19T02:09:23.047Z,934.84
2017-04-19T02:09:51.308Z,934.82
2017-04-19T02:10:19.416Z,934.85
2017-04-19T02:10:47.689Z,934.83
2017-04-19T02:11:15.932Z,934.79
2017-04-19T02:11:44.061Z,934.86
2017-04-19T02:12:12.493Z,934.9
2017-04-19T02:12:40.526Z,934.84
2017-04-19T02:13:08.766Z,934.87
2017-04-19T02:13:36.803Z,934.85
2017-04-19T02:14:05.038Z,934.84
2017-04-19T02:14:33.290Z,934.84
2017-04-19T02:15:01.505Z,934.84
2017-04-19T02:15:29.727Z,934.79
2017-04-19T02:15:57.889Z,934.81
2017-04-19T02:16:26.051Z,934.85
2017-04-19T02:16:54.273Z,934.84
2017-04-19T02:17:22.613Z,934.88
2017-04-19T02:17:50.711Z,934.88
2017-04-19T02:18:18.842Z,934.85
2017-04-19T02:18:47.004Z,934.92
2017-04-19T02:19:15.165Z,934.84
2017-04-19T02:19:43.192Z,934.88
2017-04-19T02:20:11.389Z,934.89
2017-04-19T02:20:39.452Z,934.87
2017-04-19T02:21:07.539Z,934.92
2017-04-19T02:21:35.714Z,934.9
2017-04-19T02:22:03.953Z,934.88
2017-04-19T02:22:32.378Z,934.91
2017-04-19T02:23:00.438Z,934.86
2017-04-19T02:23:28.502Z,934.91
2017-04-19T02:23:56.649Z,934.85
2017-04-19T02:24:24.634Z,934.83
2017-04-19T02:24:52.797Z,934.86
2017-04-19T02:25:20.936Z,934.88
2017-04-19T02:25:49.093Z,934.88
2017-04-19T02:26:17.329Z,934.82
2017-04-19T02:26:45.600Z,934.8
2017-04-19T02:27:13.849Z,934.83
2017-04-19T02:27:41.992Z,934.82
2017-04-19T02:28:10.022Z,934.78
2017-04-19T02:28:38.155Z,934.83
2017-04-19T02:29:06.299Z,934.8
2017-04-19T02:29:34.363Z,934.78
2017-04-19T02:30:02.594Z,934.76
2017-04-19T02:30:30.636Z,934.73
2017-04-19T02:30:58.783Z,934.8
2017-04-19T02:31:27.057Z,934.71
2017-04-19T02:31:55.321Z,934.75
2017-04-19T02:32:23.613Z,934.78
2017-04-19T02:32:51.860Z,934.77
2017-04-19T02:33:20.175Z,934.77
2017-04-19T02:33:48.301Z,934.77
2017-04-19T02:34:16.346Z,934.75
2017-04-19T02:34:44.469Z,934.77
2017-04-19T02:35:12.604Z,934.76
2017-04-19T02:35:40.655Z,934.69
2017-04-19T02:36:08.876Z,934.76
2017-04-19T02:36:37.026Z,934.71
2017-04-19T02:37:05.171Z,934.7
2017-04-19T02:37:33.353Z,934.74
2017-04-19T02:38:01.532Z,934.7
2017-04-19T02:38:29.653Z,934.7
2017-04-19T02:38:57.750Z,934.71
2017-04-19T02:39:25.980Z,934.71
2017-04-19T02:39:54.146Z,934.69
2017-04-19T02:40:22.112Z,934.68
2017-04-19T02:40:50.365Z,934.66
2017-04-19T02:41:18.543Z,934.69
2017-04-19T02:41:46.670Z,934.66
2017-04-19T02:42:14.939Z,934.65
2017-04-19T02:42:43.249Z,934.68
2017-04-19T02:43:11.412Z,934.63
2017-04-19T02:43:39.619Z,934.61
2017-04-19T02:44:07.717Z,934.67
2017-04-19T02:44:35.962Z,934.65
2017-04-19T02:45:04.111Z,934.63
2017-04-19T02:45:32.208Z,934.67
2017-04-19T02:46:00.426Z,934.65
2017-04-19T02:46:28.547Z,934.67
2017-04-19T02:46:56.565Z,934.65
2017-04-19T02:47:24.680Z,934.65
2017-04-19T02:47:52.995Z,934.7
2017-04-19T02:48:21.086Z,934.67
2017-04-19T02:48:49.224Z,934.65
2017-04-19T02:49:17.384Z,934.67
2017-04-19T02:49:45.662Z,934.67
2017-04-19T02:50:13.638Z,934.72
2017-04-19T02:50:41.668Z,934.67
2017-04-19T02:51:09.719Z,934.7
2017-04-19T02:51:37.932Z,934.72
2017-04-19T02:52:06.097Z,934.71
2017-04-19T02:52:34.256Z,934.71
2017-04-19T02:53:02.598Z,934.68
2017-04-19T02:53:30.840Z,934.74
2017-04-19T02:53:59.012Z,934.71
2017-04-19T02:54:27.256Z,934.7
2017-04-19T02:54:55.448Z,934.69
2017-04-19T02:55:23.606Z,934.68
2017-04-19T02:55:51.846Z,934.65
2017-04-19T02:56:20.049Z,934.67
2017-04-19T02:56:48.215Z,934.66
2017-04-19T02:57:16.467Z,934.66
2017-04-19T02:57:44.613Z,934.63
2017-04-19T02:58:12.669Z,934.6
2017-04-19T02:58:40.704Z,934.64
2017-04-19T02:59:08.782Z,934.58
2017-04-19T02:59:36.949Z,934.61
2017-04-19T03:00:05.097Z,934.51
2017-04-19T03:00:33.347Z,934.56
2017-04-19T03:01:01.617Z,934.56
2017-04-19T03:01:29.692Z,934.55
2017-04-19T03:01:57.725Z,934.55
2017-04-19T03:02:25.860Z,934.56
2017-04-19T03:02:54.106Z,934.55
2017-04-19T03:03:22.232Z,934.52
2017-04-19T03:03:50.344Z,934.55
2017-04-19T03:04:18.400Z,934.48
2017-04-19T03:04:46.644Z,934.49
2017-04-19T03:05:14.814Z,934.5
2017-04-19T03:05:42.928Z,934.52
2017-04-19T03:06:10.968Z,934.47
2017-04-19T03:06:39.180Z,934.48
2017-04-19T03:07:07.334Z,934.49
2017-04-19T03:07:35.470Z,934.46
2017-04-19T03:08:03.871Z,934.5
2017-04-19T03:08:32.091Z,934.44
2017-04-19T03:09:00.213Z,934.5
2017-04-19T03:09:28.366Z,934.47
2017-04-19T03:09:56.481Z,934.48
2017-04-19T03:10:24.833Z,934.52
2017-04-19T03:10:52.975Z,934.48
2017-04-19T03:11:21.195Z,934.46
2017-04-19T03:11:49.415Z,934.48
2017-04-19T03:12:17.697Z,934.46
2017-04-19T03:12:45.880Z,934.5
2017-04-19T03:13:14.033Z,934.49
2017-04-19T03:13:42.270Z,934.47
2017-04-19T03:14:10.309Z,934.53
2017-04-19T03:14:38.477Z,934.5
2017-04-19T03:15:06.716Z,934.5
2017-04-19T03:15:34.726Z,934.53
2017-04-19T03:16:02.928Z,934.51
2017-04-19T03:16:31.118Z,934.52
2017-04-19T03:16:59.307Z,934.55
2017-04-19T03:17:27.576Z,934.58
2017-04-19T03:17:55.797Z,934.56
2017-04-19T03:18:23.904Z,934.53
2017-04-19T03:18:52.031Z,934.54
2017-04-19T03:19:20.095Z,934.55
2017-04-19T03:19:48.305Z,934.54
2017-04-19T03:20:16.419Z,934.55
2017-04-19T03:20:44.455Z,934.57
2017-04-19T03:21:12.680Z,934.55
2017-04-19T03:21:40.816Z,934.54
2017-04-19T03:22:08.912Z,934.5
2017-04-19T03:22:36.921Z,934.53
2017-04-19T03:23:05.085Z,934.52
2017-04-19T03:23:33.250Z,934.52
2017-04-19T03:24:01.642Z,934.53
2017-04-19T03:24:29.811Z,934.47
2017-04-19T03:24:57.991Z,934.52
2017-04-19T03:25:26.078Z,934.47
2017-04-19T03:25:54.298Z,934.51
2017-04-19T03:26:22.454Z,934.5
2017-04-19T03:26:50.480Z,934.49
2017-04-19T03:27:18.554Z,934.47
2017-04-19T03:27:46.695Z,934.43
2017-04-19T03:28:14.843Z,934.46
2017-04-19T03:28:42.937Z,934.46
2017-04-19T03:29:11.056Z,934.42
2017-04-19T03:29:39.361Z,934.42
2017-04-19T03:30:07.589Z,934.4
2017-04-19T03:30:35.737Z,934.37
2017-04-19T03:31:03.772Z,934.37
2017-04-19T03:31:31.933Z,934.4
2017-04-19T03:32:00.375Z,934.39
2017-04-19T03:32:28.628Z,934.4
2017-04-19T03:32:56.810Z,934.39
2017-04-19T03:33:24.950Z,934.4
2017-04-19T03:33:53.086Z,934.33
2017-04-19T03:34:21.417Z,934.34
2017-04-19T03:34:49.547Z,934.29
2017-04-19T03:35:17.817Z,934.34
2017-04-19T03:35:46.088Z,934.34
2017-04-19T03:36:14.216Z,934.35
2017-04-19T03:36:42.562Z,934.33
2017-04-19T03:37:10.620Z,934.29
2017-04-19T03:37:38.835Z,934.29
2017-04-19T03:38:06.860Z,934.29
2017-04-19T03:38:35.138Z,934.25
2017-04-19T03:39:03.379Z,934.28
2017-04-19T03:39:31.508Z,934.28
2017-04-19T03:39:59.838Z,934.29
2017-04-19T03:40:28.012Z,934.26
2017-04-19T03:40:56.121Z,934.28
2017-04-19T03:41:24.168Z,934.28
2017-04-19T03:41:52.352Z,934.26
2017-04-19T03:42:20.623Z,934.29
2017-04-19T03:42:48.664Z,934.26
2017-04-19T03:43:16.906Z,934.26
2017-04-19T03:43:45.060Z,934.26
2017-04-19T03:44:13.340Z,934.28
2017-04-19T03:44:41.361Z,934.27
2017-04-19T03:45:09.579Z,934.3
2017-04-19T03:45:37.788Z,934.31
2017-04-19T03:46:05.710Z,934.34
2017-04-19T03:46:33.918Z,934.28
2017-04-19T03:47:01.877Z,934.32
2017-04-19T03:47:29.899Z,934.27
2017-04-19T03:47:58.154Z,934.27
2017-04-19T03:48:26.292Z,934.25
2017-04-19T03:48:54.494Z,934.27
2017-04-19T03:49:22.568Z,934.26
2017-04-19T03:49:50.618Z,934.28
2017-04-19T03:50:18.851Z,934.28
2017-04-19T03:50:47.094Z,934.28
2017-04-19T03:51:15.373Z,934.29
2017-04-19T03:51:43.582Z,934.26
2017-04-19T03:52:11.819Z,934.26
2017-04-19T03:52:39.940Z,934.25
2017-04-19T03:53:08.255Z,934.25
2017-04-19T03:53:36.364Z,934.24
2017-04-19T03:54:04.619Z,934.24
2017-04-19T03:54:32.749Z,934.23
2017-04-19T03:55:00.993Z,934.22
2017-04-19T03:55:29.159Z,934.26
2017-04-19T03:55:57.348Z,934.26
2017-04-19T03:56:25.600Z,934.25
2017-04-19T03:56:53.791Z,934.24
2017-04-19T03:57:21.890Z,934.24
2017-04-19T03:57:49.946Z,934.22
2017-04-19T03:58:18.228Z,934.23
2017-04-19T03:58:46.490Z,934.26
2017-04-19T03:59:14.443Z,934.25
2017-04-19T03:59:42.587Z,934.22
2017-04-19T04:00:10.790Z,934.24
2017-04-19T04:00:38.938Z,934.2
2017-04-19T04:01:07.143Z,934.23
2017-04-19T04:01:35.372Z,934.21
2017-04-19T04:02:03.579Z,934.21
2017-04-19T04:02:31.689Z,934.18
2017-04-19T04:02:59.978Z,934.18
2017-04-19T04:03:28.119Z,934.2
2017-04-19T04:03:56.380Z,934.16
2017-04-19T04:04:24.639Z,934.13
2017-04-19T04:04:52.906Z,934.13
2017-04-19T04:05:21.063Z,934.16
2017-04-19T04:05:49.182Z,934.11
2017-04-19T04:06:17.227Z,934.13
2017-04-19T04:06:45.262Z,934.11
2017-04-19T04:07:13.508Z,934.15
2017-04-19T04:07:41.675Z,934.11
2017-04-19T04:08:10.028Z,934.12
2017-04-19T04:08:38.183Z,934.1
2017-04-19T04:09:06.461Z,934.07
2017-04-19T04:09:34.599Z,934.06
2017-04-19T04:10:02.551Z,934.1
2017-04-19T04:10:30.733Z,934.07
2017-04-19T04:10:58.943Z,934.05
2017-04-19T04:11:27.107Z,934.12
2017-04-19T04:11:55.239Z,934.06
2017-04-19T04:12:23.387Z,934.03
2017-04-19T04:12:51.553Z,934.04
2017-04-19T04:13:19.946Z,934.05
2017-04-19T04:13:48.073Z,934.02
2017-04-19T04:14:16.150Z,933.99
2017-04-19T04:14:44.459Z,933.98
2017-04-19T04:15:12.701Z,934.01
2017-04-19T04:15:40.876Z,934
2017-04-19T04:16:09.083Z,934
2017-04-19T04:16:37.213Z,933.94
2017-04-19T04:17:05.462Z,933.98
2017-04-19T04:17:33.664Z,934
2017-04-19T04:18:01.531Z,933.95
2017-04-19T04:18:29.888Z,933.96
2017-04-19T04:18:57.917Z,933.95
2017-04-19T04:19:26.138Z,933.94
2017-04-19T04:19:54.372Z,933.96
2017-04-19T04:20:22.560Z,933.91
2017-04-19T04:20:50.820Z,933.92
2017-04-19T04:21:18.955Z,933.93
2017-04-19T04:21:47.152Z,933.93
2017-04-19T04:22:15.214Z,933.9
2017-04-19T04:22:43.274Z,933.9
2017-04-19T04:23:11.634Z,933.95
2017-04-19T04:23:40.148Z,933.96
2017-04-19T04:24:08.265Z,933.94
2017-04-19T04:24:36.513Z,933.93
2017-04-19T04:25:04.739Z,933.93
2017-04-19T04:25:32.834Z,933.93
2017-04-19T04:26:00.973Z,933.95
2017-04-19T04:26:29.103Z,933.93
2017-04-19T04:26:57.365Z,933.91
2017-04-19T04:27:25.614Z,933.94
2017-04-19T04:27:53.743Z,933.93
2017-04-19T04:28:22.038Z,933.93
2017-04-19T04:28:50.218Z,933.96
2017-04-19T04:29:18.578Z,933.93
2017-04-19T04:29:46.781Z,933.93
2017-04-19T04:30:14.917Z,933.9
2017-04-19T04:30:43.147Z,933.89
2017-04-19T04:31:11.378Z,933.87
2017-04-19T04:31:39.602Z,933.86
2017-04-19T04:32:07.840Z,933.8
2017-04-19T04:32:35.870Z,933.86
2017-04-19T04:33:03.895Z,933.87
2017-04-19T04:33:32.217Z,933.87
2017-04-19T04:34:00.418Z,933.88
2017-04-19T04:34:28.581Z,933.85
2017-04-19T04:34:57.030Z,933.86
2017-04-19T04:35:25.000Z,933.87
2017-04-19T04:35:53.210Z,933.86
2017-04-19T04:36:21.445Z,933.87
2017-04-19T04:36:49.586Z,933.89
2017-04-19T04:37:17.772Z,933.88
2017-04-19T04:37:46.333Z,933.86
2017-04-19T04:38:14.539Z,933.9
2017-04-19T04:38:42.664Z,933.92
2017-04-19T04:39:10.759Z,933.94
2017-04-19T04:39:38.917Z,933.91
2017-04-19T04:40:07.384Z,933.9
2017-04-19T04:40:35.395Z,933.91
2017-04-19T04:41:03.437Z,933.91
2017-04-19T04:41:31.655Z,933.9
2017-04-19T04:42:00.024Z,933.91
2017-04-19T04:42:28.118Z,933.86
2017-04-19T04:42:56.338Z,933.89
2017-04-19T04:43:24.517Z,933.87
2017-04-19T04:43:52.819Z,933.89
2017-04-19T04:44:21.067Z,933.88
2017-04-19T04:44:49.194Z,933.88
2017-04-19T04:45:17.389Z,933.89
2017-04-19T04:45:45.611Z,933.86
2017-04-19T04:46:13.971Z,933.87
2017-04-19T04:46:42.169Z,933.88
2017-04-19T04:47:10.314Z,933.83
2017-04-19T04:47:38.530Z,933.88
2017-04-19T04:48:06.534Z,933.87
2017-04-19T04:48:34.932Z,933.87
2017-04-19T04:49:02.995Z,933.87
2017-04-19T04:49:31.212Z,933.86
2017-04-19T04:49:59.269Z,933.85
2017-04-19T04:50:27.806Z,933.87
2017-04-19T04:50:55.941Z,933.83
2017-04-19T04:51:23.949Z,933.83
2017-04-19T04:51:52.291Z,933.84
2017-04-19T04:52:20.262Z,933.82
2017-04-19T04:52:48.468Z,933.83
2017-04-19T04:53:16.597Z,933.82
2017-04-19T04:53:44.831Z,933.8
2017-04-19T04:54:12.790Z,933.83
2017-04-19T04:54:40.954Z,933.78
2017-04-19T04:55:09.267Z,933.8
2017-04-19T04:55:37.466Z,933.75
2017-04-19T04:56:05.664Z,933.78
2017-04-19T04:56:33.861Z,933.76
2017-04-19T04:57:01.944Z,933.75
2017-04-19T04:57:30.093Z,933.74
2017-04-19T04:57:58.183Z,933.74
2017-04-19T04:58:26.421Z,933.74
2017-04-19T04:58:54.339Z,933.76
2017-04-19T04:59:22.838Z,933.75
2017-04-19T04:59:51.086Z,933.76
2017-04-19T05:00:19.359Z,933.78
2017-04-19T05:00:47.632Z,933.77
2017-04-19T05:01:16.015Z,933.76
2017-04-19T05:01:44.254Z,933.78
2017-04-19T05:02:12.337Z,933.78
2017-04-19T05:02:40.452Z,933.8
2017-04-19T05:03:08.810Z,933.79
2017-04-19T05:03:37.026Z,933.76
2017-04-19T05:04:05.347Z,933.77
2017-04-19T05:04:33.570Z,933.79
2017-04-19T05:05:01.621Z,933.75
2017-04-19T05:05:29.835Z,933.71
2017-04-19T05:05:57.927Z,933.7
2017-04-19T05:06:26.208Z,933.7
2017-04-19T05:06:54.409Z,933.71
2017-04-19T05:07:22.543Z,933.7
2017-04-19T05:07:50.698Z,933.71
2017-04-19T05:08:18.857Z,933.68
2017-04-19T05:08:47.101Z,933.63
2017-04-19T05:09:15.257Z,933.62
2017-04-19T05:09:43.496Z,933.63
2017-04-19T05:10:11.507Z,933.62
2017-04-19T05:10:39.768Z,933.6
2017-04-19T05:11:07.997Z,933.63
2017-04-19T05:11:36.025Z,933.56
2017-04-19T05:12:04.183Z,933.58
2017-04-19T05:12:33.011Z,933.58
2017-04-19T05:13:00.939Z,933.6
2017-04-19T05:13:29.156Z,933.61
2017-04-19T05:13:57.497Z,933.6
2017-04-19T05:14:25.602Z,933.6
2017-04-19T05:14:53.750Z,933.58
2017-04-19T05:15:21.834Z,933.58
2017-04-19T05:15:49.985Z,933.57
2017-04-19T05:16:18.109Z,933.59
2017-04-19T05:16:46.343Z,933.59
2017-04-19T05:17:14.634Z,933.62
2017-04-19T05:17:42.916Z,933.62
2017-04-19T05:18:10.966Z,933.63
2017-04-19T05:18:39.180Z,933.61
2017-04-19T05:19:07.425Z,933.66
2017-04-19T05:19:35.545Z,933.61
2017-04-19T05:20:03.719Z,933.63
2017-04-19T05:20:31.965Z,933.61
2017-04-19T05:21:00.047Z,933.61
2017-04-19T05:21:28.083Z,933.61
2017-04-19T05:21:56.146Z,933.6
2017-04-19T05:22:24.314Z,933.64
2017-04-19T05:22:52.263Z,933.54
2017-04-19T05:23:20.503Z,933.61
2017-04-19T05:23:48.673Z,933.62
2017-04-19T05:24:16.827Z,933.58
2017-04-19T05:24:45.011Z,933.61
2017-04-19T05:25:13.264Z,933.55
2017-04-19T05:25:41.379Z,933.58
2017-04-19T05:26:09.520Z,933.58
2017-04-19T05:26:37.710Z,933.57
2017-04-19T05:27:05.738Z,933.57
2017-04-19T05:27:34.002Z,933.56
2017-04-19T05:28:02.268Z,933.55
2017-04-19T05:28:30.196Z,933.58
2017-04-19T05:28:58.667Z,933.55
2017-04-19T05:29:26.808Z,933.53
2017-04-19T05:29:54.912Z,933.61
2017-04-19T05:30:23.054Z,933.52
2017-04-19T05:30:51.225Z,933.56
2017-04-19T05:31:19.375Z,933.58
2017-04-19T05:31:47.551Z,933.55
2017-04-19T05:32:15.888Z,933.56
2017-04-19T05:32:44.002Z,933.57
2017-04-19T05:33:12.150Z,933.58
2017-04-19T05:33:40.391Z,933.55
2017-04-19T05:34:08.622Z,933.56
2017-04-19T05:34:36.744Z,933.57
2017-04-19T05:35:04.953Z,933.57
2017-04-19T05:35:33.182Z,933.55
2017-04-19T05:36:01.421Z,933.56
2017-04-19T05:36:29.618Z,933.57
2017-04-19T05:36:57.666Z,933.57
2017-04-19T05:37:25.917Z,933.57
2017-04-19T05:37:53.949Z,933.59
2017-04-19T05:38:22.156Z,933.58
2017-04-19T05:38:50.367Z,933.58
2017-04-19T05:39:18.733Z,933.58
2017-04-19T05:39:46.985Z,933.59
2017-04-19T05:40:15.203Z,933.56
2017-04-19T05:40:43.460Z,933.61
2017-04-19T05:41:11.947Z,933.58
2017-04-19T05:41:40.076Z,933.57
2017-04-19T05:42:08.215Z,933.59
2017-04-19T05:42:36.279Z,933.57
2017-04-19T05:43:04.704Z,933.57
2017-04-19T05:43:32.940Z,933.54
2017-04-19T05:44:01.197Z,933.57
2017-04-19T05:44:29.512Z,933.52
2017-04-19T05:44:57.756Z,933.54
2017-04-19T05:45:25.934Z,933.5
2017-04-19T05:45:54.200Z,933.55
2017-04-19T05:46:22.420Z,933.54
2017-04-19T05:46:50.677Z,933.55
2017-04-19T05:47:18.735Z,933.6
2017-04-19T05:47:46.891Z,933.65
2017-04-19T05:48:14.986Z,933.56
2017-04-19T05:48:43.178Z,933.58
2017-04-19T05:49:11.430Z,933.57
2017-04-19T05:49:39.590Z,933.61
2017-04-19T05:50:07.688Z,933.62
2017-04-19T05:50:35.921Z,933.65
2017-04-19T05:51:04.102Z,933.69
2017-04-19T05:51:32.245Z,933.69
2017-04-19T05:52:00.459Z,933.68
2017-04-19T05:52:28.633Z,933.7
2017-04-19T05:52:56.859Z,933.71
2017-04-19T05:53:25.014Z,933.73